createdAt,value
2019-03-27T00:00:16.734Z,0.00
2019-03-27T00:01:16.724Z,0.00
2019-03-27T00:02:16.716Z,0.00
2019-03-27T00:03:16.710Z,0.00
2019-03-27T00:04:16.702Z,0.00
2019-03-27T00:05:16.684Z,0.00
2019-03-27T00:06:16.671Z,0.00
2019-03-27T00:07:16.665Z,0.00
2019-03-27T00:08:16.651Z,0.00
2019-03-27T00:09:16.651Z,0.00
2019-03-27T00:10:16.631Z,0.00
2019-03-27T00:11:16.632Z,0.00
2019-03-27T00:12:16.607Z,0.00
2019-03-27T00:13:16.598Z,0.00
2019-03-27T00:14:16.599Z,0.00
2019-03-27T00:15:16.580Z,0.00
2019-03-27T00:16:16.568Z,0.00
2019-03-27T00:17:16.553Z,0.00
2019-03-27T00:18:27.252Z,0.00
2019-03-27T00:19:16.545Z,0.00
2019-03-27T00:20:16.536Z,0.00
2019-03-27T00:21:16.511Z,0.00
2019-03-27T00:22:16.500Z,0.00
2019-03-27T00:23:16.493Z,0.00
2019-03-27T00:24:16.489Z,0.00
2019-03-27T00:25:16.472Z,0.00
2019-03-27T00:26:16.464Z,0.00
2019-03-27T00:27:16.449Z,0.00
2019-03-27T00:28:16.443Z,0.00
2019-03-27T00:29:16.474Z,0.00
2019-03-27T00:30:16.433Z,0.00
2019-03-27T00:31:16.422Z,0.00
2019-03-27T00:32:16.406Z,0.00
2019-03-27T00:33:16.396Z,0.00
2019-03-27T00:34:16.470Z,0.00
2019-03-27T00:35:16.386Z,0.00
2019-03-27T00:36:16.371Z,0.00
2019-03-27T00:37:16.353Z,0.00
2019-03-27T00:38:16.348Z,0.00
2019-03-27T00:39:16.338Z,0.00
2019-03-27T00:40:16.336Z,0.00
2019-03-27T00:41:16.313Z,0.00
2019-03-27T00:42:16.306Z,0.00
2019-03-27T00:43:16.300Z,0.00
2019-03-27T00:44:16.277Z,0.00
2019-03-27T00:45:26.375Z,0.00
2019-03-27T00:46:17.256Z,0.00
2019-03-27T00:47:16.253Z,0.00
2019-03-27T00:48:16.233Z,0.00
2019-03-27T00:49:16.222Z,0.00
2019-03-27T00:50:16.231Z,0.00
2019-03-27T00:51:16.214Z,0.00
2019-03-27T00:52:16.199Z,0.00
2019-03-27T00:53:16.178Z,0.00
2019-03-27T00:54:16.174Z,0.00
2019-03-27T00:55:16.172Z,0.00
2019-03-27T00:56:16.152Z,0.00
2019-03-27T00:57:16.142Z,0.00
2019-03-27T00:58:16.128Z,0.00
2019-03-27T00:59:19.168Z,0.00
2019-03-27T01:00:16.120Z,0.00
2019-03-27T01:01:16.099Z,0.00
2019-03-27T01:02:16.082Z,0.00
2019-03-27T01:03:16.073Z,0.00
2019-03-27T01:04:16.071Z,0.00
2019-03-27T01:05:16.060Z,0.00
2019-03-27T01:06:16.089Z,0.00
2019-03-27T01:07:16.043Z,0.00
2019-03-27T01:08:16.021Z,0.00
2019-03-27T01:09:16.015Z,0.00
2019-03-27T01:10:16.015Z,0.00
2019-03-27T01:11:15.986Z,0.00
2019-03-27T01:12:15.977Z,0.00
2019-03-27T01:13:15.972Z,0.00
2019-03-27T01:14:15.958Z,0.00
2019-03-27T01:15:15.961Z,0.00
2019-03-27T01:16:15.944Z,0.00
2019-03-27T01:17:15.927Z,0.00
2019-03-27T01:18:15.916Z,0.00
2019-03-27T01:19:15.905Z,0.00
2019-03-27T01:20:15.925Z,0.00
2019-03-27T01:21:15.890Z,0.00
2019-03-27T01:22:15.868Z,0.00
2019-03-27T01:23:15.862Z,0.00
2019-03-27T01:24:15.848Z,0.00
2019-03-27T01:25:15.856Z,0.00
2019-03-27T01:26:15.828Z,0.00
2019-03-27T01:27:15.815Z,0.00
2019-03-27T01:28:15.833Z,0.00
2019-03-27T01:29:15.797Z,0.00
2019-03-27T01:30:15.839Z,0.00
2019-03-27T01:31:15.775Z,0.00
2019-03-27T01:32:15.771Z,0.00
2019-03-27T01:33:15.769Z,0.00
2019-03-27T01:34:15.742Z,0.00
2019-03-27T01:35:15.732Z,0.00
2019-03-27T01:36:15.737Z,0.00
2019-03-27T01:37:15.719Z,0.00
2019-03-27T01:38:15.705Z,0.00
2019-03-27T01:39:15.743Z,0.00
2019-03-27T01:40:15.680Z,0.00
2019-03-27T01:41:24.320Z,0.00
2019-03-27T01:42:24.854Z,0.00
2019-03-27T01:43:15.644Z,0.00
2019-03-27T01:44:15.633Z,0.00
2019-03-27T01:45:15.618Z,0.00
2019-03-27T01:46:15.622Z,0.00
2019-03-27T01:47:15.619Z,0.00
2019-03-27T01:48:15.588Z,0.00
2019-03-27T01:49:15.581Z,0.00
2019-03-27T01:50:15.584Z,0.00
2019-03-27T01:51:15.565Z,0.00
2019-03-27T01:52:24.829Z,0.00
2019-03-27T01:53:15.535Z,0.00
2019-03-27T01:54:15.525Z,0.00
2019-03-27T01:55:15.513Z,0.00
2019-03-27T01:56:15.509Z,0.00
2019-03-27T01:57:15.489Z,0.00
2019-03-27T01:58:15.478Z,0.00
2019-03-27T01:59:15.467Z,0.00
2019-03-27T02:00:15.459Z,0.00
2019-03-27T02:01:15.456Z,0.00
2019-03-27T02:02:15.436Z,0.00
2019-03-27T02:03:15.425Z,0.00
2019-03-27T02:04:15.417Z,0.00
2019-03-27T02:05:15.406Z,0.00
2019-03-27T02:06:15.406Z,0.00
2019-03-27T02:07:15.383Z,0.00
2019-03-27T02:08:15.371Z,0.00
2019-03-27T02:09:15.371Z,0.00
2019-03-27T02:10:15.351Z,0.00
2019-03-27T02:11:15.353Z,0.00
2019-03-27T02:12:15.329Z,0.00
2019-03-27T02:13:15.317Z,0.00
2019-03-27T02:14:15.309Z,0.00
2019-03-27T02:15:15.298Z,0.00
2019-03-27T02:16:15.299Z,0.00
2019-03-27T02:17:15.280Z,0.00
2019-03-27T02:18:15.265Z,0.00
2019-03-27T02:19:15.268Z,0.00
2019-03-27T02:20:15.245Z,0.00
2019-03-27T02:21:15.241Z,0.00
2019-03-27T02:22:15.228Z,0.00
2019-03-27T02:23:15.214Z,0.00
2019-03-27T02:24:15.202Z,0.00
2019-03-27T02:25:15.198Z,0.00
2019-03-27T02:26:15.189Z,0.00
2019-03-27T02:27:15.169Z,0.00
2019-03-27T02:28:15.157Z,0.00
2019-03-27T02:29:15.146Z,0.00
2019-03-27T02:30:15.138Z,0.00
2019-03-27T02:31:15.137Z,0.00
2019-03-27T02:32:15.116Z,0.00
2019-03-27T02:33:15.105Z,0.00
2019-03-27T02:34:15.107Z,0.00
2019-03-27T02:35:15.088Z,0.00
2019-03-27T02:36:15.085Z,0.00
2019-03-27T02:37:15.132Z,0.00
2019-03-27T02:38:15.050Z,0.00
2019-03-27T02:39:15.043Z,0.00
2019-03-27T02:40:15.029Z,0.00
2019-03-27T02:41:15.062Z,0.00
2019-03-27T02:42:15.014Z,0.00
2019-03-27T02:43:15.003Z,0.00
2019-03-27T02:44:14.991Z,0.00
2019-03-27T02:45:14.977Z,0.00
2019-03-27T02:46:24.335Z,0.00
2019-03-27T02:47:15.964Z,0.00
2019-03-27T02:48:14.944Z,0.00
2019-03-27T02:49:14.935Z,0.00
2019-03-27T02:50:14.937Z,0.00
2019-03-27T02:51:14.915Z,0.00
2019-03-27T02:52:14.919Z,0.00
2019-03-27T02:53:14.946Z,0.00
2019-03-27T02:54:14.885Z,0.00
2019-03-27T02:55:14.869Z,0.00
2019-03-27T02:56:14.862Z,0.00
2019-03-27T02:57:14.873Z,0.00
2019-03-27T02:58:14.839Z,0.00
2019-03-27T02:59:14.828Z,0.00
2019-03-27T03:00:14.816Z,0.00
2019-03-27T03:01:14.805Z,0.00
2019-03-27T03:02:14.802Z,0.00
2019-03-27T03:03:14.785Z,0.00
2019-03-27T03:04:14.775Z,0.00
2019-03-27T03:05:14.771Z,0.00
2019-03-27T03:06:14.755Z,0.00
2019-03-27T03:07:14.862Z,0.00
2019-03-27T03:08:14.732Z,0.00
2019-03-27T03:09:14.721Z,0.00
2019-03-27T03:10:14.718Z,0.00
2019-03-27T03:11:14.701Z,0.00
2019-03-27T03:12:14.698Z,0.00
2019-03-27T03:13:14.678Z,0.00
2019-03-27T03:14:14.667Z,0.00
2019-03-27T03:15:14.660Z,0.00
2019-03-27T03:16:14.664Z,0.00
2019-03-27T03:17:14.646Z,0.00
2019-03-27T03:18:14.625Z,0.00
2019-03-27T03:19:14.617Z,0.00
2019-03-27T03:20:14.605Z,0.00
2019-03-27T03:21:14.596Z,0.00
2019-03-27T03:22:14.592Z,0.00
2019-03-27T03:23:14.571Z,0.00
2019-03-27T03:24:14.562Z,0.00
2019-03-27T03:25:14.551Z,0.00
2019-03-27T03:26:14.539Z,0.00
2019-03-27T03:27:14.540Z,0.00
2019-03-27T03:28:14.525Z,0.00
2019-03-27T03:29:14.513Z,0.00
2019-03-27T03:30:14.626Z,0.00
2019-03-27T03:31:14.492Z,0.00
2019-03-27T03:32:14.495Z,0.00
2019-03-27T03:33:14.494Z,0.00
2019-03-27T03:34:14.460Z,0.00
2019-03-27T03:35:14.467Z,0.00
2019-03-27T03:36:14.439Z,0.00
2019-03-27T03:37:14.433Z,0.00
2019-03-27T03:38:14.419Z,0.00
2019-03-27T03:39:14.404Z,0.00
2019-03-27T03:40:14.391Z,0.00
2019-03-27T03:41:14.386Z,0.00
2019-03-27T03:42:14.381Z,0.00
2019-03-27T03:43:14.492Z,0.00
2019-03-27T03:44:14.348Z,0.00
2019-03-27T03:45:14.338Z,0.00
2019-03-27T03:46:14.337Z,0.00
2019-03-27T03:47:14.324Z,0.00
2019-03-27T03:48:14.315Z,0.00
2019-03-27T03:49:14.298Z,0.00
2019-03-27T03:50:14.296Z,0.00
2019-03-27T03:51:14.278Z,0.00
2019-03-27T03:52:14.271Z,0.00
2019-03-27T03:53:14.252Z,0.00
2019-03-27T03:54:14.240Z,0.00
2019-03-27T03:55:14.229Z,0.00
2019-03-27T03:56:14.216Z,0.00
2019-03-27T03:57:14.216Z,0.00
2019-03-27T03:58:14.195Z,0.00
2019-03-27T03:59:14.193Z,0.00
2019-03-27T04:00:14.175Z,0.00
2019-03-27T04:01:14.167Z,0.00
2019-03-27T04:02:14.163Z,0.00
2019-03-27T04:03:14.142Z,0.00
2019-03-27T04:04:14.131Z,0.00
2019-03-27T04:05:14.120Z,0.00
2019-03-27T04:06:14.114Z,0.00
2019-03-27T04:07:14.111Z,0.00
2019-03-27T04:08:14.094Z,0.00
2019-03-27T04:09:14.081Z,0.00
2019-03-27T04:10:14.066Z,0.00
2019-03-27T04:11:14.064Z,0.00
2019-03-27T04:12:14.059Z,0.00
2019-03-27T04:13:14.037Z,0.00
2019-03-27T04:14:14.025Z,0.00
2019-03-27T04:15:14.019Z,0.00
2019-03-27T04:16:14.007Z,0.00
2019-03-27T04:17:17.663Z,0.00
2019-03-27T04:18:13.980Z,0.00
2019-03-27T04:19:13.972Z,0.00
2019-03-27T04:20:13.960Z,0.00
2019-03-27T04:21:13.976Z,0.00
2019-03-27T04:22:13.978Z,0.00
2019-03-27T04:23:13.927Z,0.00
2019-03-27T04:24:13.920Z,0.00
2019-03-27T04:25:13.904Z,0.00
2019-03-27T04:26:13.894Z,0.00
2019-03-27T04:27:13.912Z,0.00
2019-03-27T04:28:13.880Z,0.00
2019-03-27T04:29:13.861Z,0.00
2019-03-27T04:30:13.919Z,4.00
2019-03-27T04:31:13.841Z,4.00
2019-03-27T04:32:13.837Z,0.00
2019-03-27T04:33:13.828Z,0.00
2019-03-27T04:34:13.809Z,0.00
2019-03-27T04:35:13.839Z,4.00
2019-03-27T04:36:13.787Z,4.00
2019-03-27T04:37:13.781Z,0.00
2019-03-27T04:38:13.774Z,4.00
2019-03-27T04:39:13.754Z,4.00
2019-03-27T04:40:13.745Z,4.00
2019-03-27T04:41:13.740Z,4.00
2019-03-27T04:42:13.722Z,8.00
2019-03-27T04:43:13.721Z,8.00
2019-03-27T04:44:13.798Z,8.00
2019-03-27T04:45:13.687Z,8.00
2019-03-27T04:46:13.677Z,12.00
2019-03-27T04:47:13.702Z,12.00
2019-03-27T04:48:13.668Z,12.00
2019-03-27T04:49:13.647Z,20.00
2019-03-27T04:50:13.638Z,16.00
2019-03-27T04:51:13.626Z,20.00
2019-03-27T04:52:13.613Z,24.00
2019-03-27T04:53:13.612Z,24.00
2019-03-27T04:54:13.606Z,28.00
2019-03-27T04:55:13.588Z,24.00
2019-03-27T04:56:13.572Z,28.00
2019-03-27T04:57:13.558Z,28.00
2019-03-27T04:58:13.562Z,28.00
2019-03-27T04:59:13.537Z,28.00
2019-03-27T05:00:13.531Z,28.00
2019-03-27T05:01:13.514Z,36.00
2019-03-27T05:02:13.503Z,36.00
2019-03-27T05:03:13.508Z,36.00
2019-03-27T05:04:13.482Z,36.00
2019-03-27T05:05:13.472Z,40.00
2019-03-27T05:06:13.461Z,40.00
2019-03-27T05:07:13.784Z,40.00
2019-03-27T05:08:13.449Z,36.00
2019-03-27T05:09:13.428Z,44.00
2019-03-27T05:10:13.416Z,52.00
2019-03-27T05:11:13.417Z,56.00
2019-03-27T05:12:13.395Z,56.00
2019-03-27T05:13:13.393Z,64.00
2019-03-27T05:14:13.390Z,72.00
2019-03-27T05:15:13.365Z,80.00
2019-03-27T05:16:13.352Z,88.00
2019-03-27T05:17:13.343Z,92.00
2019-03-27T05:18:13.340Z,108.00
2019-03-27T05:19:13.325Z,100.00
2019-03-27T05:20:13.312Z,112.00
2019-03-27T05:21:13.301Z,120.00
2019-03-27T05:22:13.287Z,128.00
2019-03-27T05:23:13.287Z,128.00
2019-03-27T05:24:13.266Z,132.00
2019-03-27T05:25:13.257Z,128.00
2019-03-27T05:26:13.245Z,140.00
2019-03-27T05:27:13.233Z,144.00
2019-03-27T05:28:13.254Z,144.00
2019-03-27T05:29:13.213Z,132.00
2019-03-27T05:30:13.201Z,140.00
2019-03-27T05:31:13.190Z,164.00
2019-03-27T05:32:13.181Z,160.00
2019-03-27T05:33:13.168Z,148.00
2019-03-27T05:34:13.173Z,148.00
2019-03-27T05:35:13.149Z,152.00
2019-03-27T05:36:13.135Z,172.00
2019-03-27T05:37:13.125Z,184.00
2019-03-27T05:38:13.114Z,196.00
2019-03-27T05:39:14.675Z,204.00
2019-03-27T05:40:13.096Z,228.00
2019-03-27T05:41:13.082Z,232.00
2019-03-27T05:42:13.079Z,224.00
2019-03-27T05:43:13.065Z,220.00
2019-03-27T05:44:13.057Z,220.00
2019-03-27T05:45:13.040Z,220.00
2019-03-27T05:46:13.032Z,212.00
2019-03-27T05:47:13.017Z,220.00
2019-03-27T05:48:13.009Z,212.00
2019-03-27T05:49:13.004Z,204.00
2019-03-27T05:50:12.988Z,212.00
2019-03-27T05:51:12.976Z,232.00
2019-03-27T05:52:12.973Z,232.00
2019-03-27T05:53:12.950Z,224.00
2019-03-27T05:54:12.955Z,216.00
2019-03-27T05:55:12.932Z,216.00
2019-03-27T05:56:12.923Z,240.00
2019-03-27T05:57:12.906Z,244.00
2019-03-27T05:58:12.896Z,252.00
2019-03-27T05:59:12.982Z,264.00
2019-03-27T06:00:12.876Z,256.00
2019-03-27T06:01:12.863Z,264.00
2019-03-27T06:02:12.852Z,232.00
2019-03-27T06:03:12.840Z,220.00
2019-03-27T06:04:12.833Z,236.00
2019-03-27T06:05:12.829Z,244.00
2019-03-27T06:06:12.808Z,264.00
2019-03-27T06:07:12.813Z,308.00
2019-03-27T06:08:12.790Z,316.00
2019-03-27T06:09:12.790Z,360.00
2019-03-27T06:10:16.139Z,384.00
2019-03-27T06:11:12.756Z,460.00
2019-03-27T06:12:12.777Z,496.00
2019-03-27T06:13:12.735Z,512.00
2019-03-27T06:14:12.722Z,484.00
2019-03-27T06:15:12.719Z,460.00
2019-03-27T06:16:12.699Z,460.00
2019-03-27T06:17:12.690Z,448.00
2019-03-27T06:18:13.573Z,448.00
2019-03-27T06:19:12.690Z,400.00
2019-03-27T06:20:12.668Z,416.00
2019-03-27T06:21:12.653Z,396.00
2019-03-27T06:22:15.113Z,412.00
2019-03-27T06:23:12.633Z,448.00
2019-03-27T06:24:12.674Z,580.00
2019-03-27T06:25:12.626Z,640.00
2019-03-27T06:26:12.593Z,684.00
2019-03-27T06:27:12.581Z,716.00
2019-03-27T06:28:12.570Z,688.00
2019-03-27T06:29:15.650Z,704.00
2019-03-27T06:30:12.557Z,708.00
2019-03-27T06:31:12.542Z,832.00
2019-03-27T06:32:12.527Z,900.00
2019-03-27T06:33:12.517Z,1000.00
2019-03-27T06:34:12.508Z,952.00
2019-03-27T06:35:12.503Z,960.00
2019-03-27T06:36:12.484Z,1044.00
2019-03-27T06:37:12.472Z,1324.00
2019-03-27T06:38:12.462Z,1344.00
2019-03-27T06:39:12.471Z,1184.00
2019-03-27T06:40:12.453Z,1288.00
2019-03-27T06:41:12.435Z,1232.00
2019-03-27T06:42:12.426Z,1092.00
2019-03-27T06:43:12.409Z,1096.00
2019-03-27T06:44:12.398Z,1344.00
2019-03-27T06:45:12.397Z,1416.00
2019-03-27T06:46:12.376Z,1656.00
2019-03-27T06:47:12.364Z,1552.00
2019-03-27T06:48:25.445Z,1576.00
2019-03-27T06:49:13.357Z,1372.00
2019-03-27T06:50:12.345Z,1148.00
2019-03-27T06:51:12.379Z,1068.00
2019-03-27T06:52:12.312Z,1204.00
2019-03-27T06:53:12.300Z,1576.00
2019-03-27T06:54:12.293Z,1880.00
2019-03-27T06:55:12.294Z,1972.00
2019-03-27T06:56:12.270Z,1932.00
2019-03-27T06:57:12.261Z,1896.00
2019-03-27T06:58:12.250Z,1796.00
2019-03-27T06:59:12.236Z,1788.00
2019-03-27T07:00:12.240Z,1632.00
2019-03-27T07:01:12.216Z,1820.00
2019-03-27T07:02:12.204Z,1792.00
2019-03-27T07:03:12.194Z,1900.00
2019-03-27T07:04:12.184Z,2040.00
2019-03-27T07:05:12.202Z,2068.00
2019-03-27T07:06:12.193Z,2236.00
2019-03-27T07:07:12.152Z,2416.00
2019-03-27T07:08:12.144Z,2468.00
2019-03-27T07:09:12.128Z,2584.00
2019-03-27T07:10:12.127Z,2432.00
2019-03-27T07:11:12.109Z,2776.00
2019-03-27T07:12:21.092Z,2680.00
2019-03-27T07:13:13.088Z,2852.00
2019-03-27T07:14:12.075Z,2580.00
2019-03-27T07:15:12.077Z,2764.00
2019-03-27T07:16:12.055Z,3080.00
2019-03-27T07:17:12.044Z,3076.00
2019-03-27T07:18:12.036Z,2984.00
2019-03-27T07:19:12.021Z,3004.00
2019-03-27T07:20:12.025Z,3036.00
2019-03-27T07:21:12.001Z,3044.00
2019-03-27T07:22:12.016Z,2912.00
2019-03-27T07:23:11.985Z,2704.00
2019-03-27T07:24:11.976Z,2488.00
2019-03-27T07:25:11.967Z,2404.00
2019-03-27T07:26:11.948Z,2364.00
2019-03-27T07:27:11.937Z,2136.00
2019-03-27T07:28:11.934Z,2212.00
2019-03-27T07:29:11.915Z,2256.00
2019-03-27T07:30:11.932Z,2196.00
2019-03-27T07:31:11.893Z,2308.00
2019-03-27T07:32:11.886Z,2328.00
2019-03-27T07:33:11.873Z,2400.00
2019-03-27T07:34:11.863Z,2524.00
2019-03-27T07:35:11.853Z,2704.00
2019-03-27T07:36:11.850Z,2904.00
2019-03-27T07:37:11.844Z,3044.00
2019-03-27T07:38:11.819Z,3152.00
2019-03-27T07:39:11.810Z,3152.00
2019-03-27T07:40:11.796Z,3104.00
2019-03-27T07:41:11.795Z,2992.00
2019-03-27T07:42:11.782Z,2988.00
2019-03-27T07:43:11.775Z,3076.00
2019-03-27T07:44:11.758Z,3160.00
2019-03-27T07:45:11.764Z,3188.00
2019-03-27T07:46:11.780Z,3092.00
2019-03-27T07:47:11.722Z,2816.00
2019-03-27T07:48:11.714Z,2588.00
2019-03-27T07:49:11.699Z,2472.00
2019-03-27T07:50:11.690Z,2452.00
2019-03-27T07:51:11.690Z,2356.00
2019-03-27T07:52:11.666Z,2164.00
2019-03-27T07:53:11.664Z,2032.00
2019-03-27T07:54:11.646Z,1936.00
2019-03-27T07:55:19.278Z,1752.00
2019-03-27T07:56:12.637Z,1724.00
2019-03-27T07:57:11.615Z,1792.00
2019-03-27T07:58:11.602Z,1776.00
2019-03-27T07:59:11.609Z,1776.00
2019-03-27T08:00:11.581Z,1832.00
2019-03-27T08:01:11.583Z,2036.00
2019-03-27T08:02:11.564Z,2196.00
2019-03-27T08:03:11.549Z,2184.00
2019-03-27T08:04:14.284Z,2128.00
2019-03-27T08:05:11.527Z,2184.00
2019-03-27T08:06:11.532Z,2208.00
2019-03-27T08:07:11.509Z,2152.00
2019-03-27T08:08:11.499Z,1944.00
2019-03-27T08:09:11.485Z,1828.00
2019-03-27T08:10:11.474Z,1972.00
2019-03-27T08:11:11.474Z,2208.00
2019-03-27T08:12:11.453Z,2016.00
2019-03-27T08:13:11.452Z,1972.00
2019-03-27T08:14:11.434Z,1984.00
2019-03-27T08:15:11.419Z,1972.00
2019-03-27T08:16:11.462Z,1868.00
2019-03-27T08:17:11.400Z,1596.00
2019-03-27T08:18:11.393Z,1616.00
2019-03-27T08:19:11.388Z,1676.00
2019-03-27T08:20:11.900Z,1680.00
2019-03-27T08:21:11.391Z,1808.00
2019-03-27T08:22:11.360Z,1912.00
2019-03-27T08:23:11.340Z,1724.00
2019-03-27T08:24:11.325Z,1448.00
2019-03-27T08:25:11.319Z,1616.00
2019-03-27T08:26:11.305Z,1744.00
2019-03-27T08:27:14.467Z,1760.00
2019-03-27T08:28:11.286Z,1976.00
2019-03-27T08:29:11.274Z,1960.00
2019-03-27T08:30:11.269Z,1696.00
2019-03-27T08:31:11.249Z,1356.00
2019-03-27T08:32:11.252Z,1576.00
2019-03-27T08:33:11.229Z,1712.00
2019-03-27T08:34:11.225Z,1772.00
2019-03-27T08:35:11.211Z,1592.00
2019-03-27T08:36:11.198Z,1432.00
2019-03-27T08:37:11.192Z,1696.00
2019-03-27T08:38:11.174Z,2032.00
2019-03-27T08:39:11.164Z,2140.00
2019-03-27T08:40:11.159Z,2020.00
2019-03-27T08:41:11.145Z,1936.00
2019-03-27T08:42:11.145Z,1776.00
2019-03-27T08:43:21.063Z,1820.00
2019-03-27T08:44:12.112Z,1724.00
2019-03-27T08:45:11.098Z,1620.00
2019-03-27T08:46:11.093Z,1720.00
2019-03-27T08:47:11.116Z,1688.00
2019-03-27T08:48:11.067Z,1908.00
2019-03-27T08:49:21.387Z,2380.00
2019-03-27T08:50:12.045Z,2476.00
2019-03-27T08:51:11.033Z,2236.00
2019-03-27T08:52:11.035Z,1972.00
2019-03-27T08:53:11.025Z,2396.00
2019-03-27T08:54:11.005Z,2612.00
2019-03-27T08:55:13.494Z,2824.00
2019-03-27T08:56:10.980Z,3248.00
2019-03-27T08:57:10.979Z,2976.00
2019-03-27T08:58:10.959Z,2732.00
2019-03-27T08:59:10.957Z,2412.00
2019-03-27T09:00:10.943Z,2360.00
2019-03-27T09:01:10.926Z,2764.00
2019-03-27T09:02:10.943Z,3216.00
2019-03-27T09:03:10.907Z,2908.00
2019-03-27T09:04:10.984Z,2404.00
2019-03-27T09:05:10.887Z,2256.00
2019-03-27T09:06:10.874Z,1948.00
2019-03-27T09:07:10.870Z,1928.00
2019-03-27T09:08:10.913Z,1952.00
2019-03-27T09:09:10.838Z,2340.00
2019-03-27T09:10:10.830Z,2724.00
2019-03-27T09:11:10.824Z,2668.00
2019-03-27T09:12:10.820Z,2788.00
2019-03-27T09:13:10.802Z,2888.00
2019-03-27T09:14:10.785Z,3320.00
2019-03-27T09:15:10.777Z,4020.00
2019-03-27T09:16:10.766Z,5508.00
2019-03-27T09:17:10.779Z,8952.00
2019-03-27T09:18:10.744Z,13084.00
2019-03-27T09:19:10.732Z,12712.00
2019-03-27T09:20:10.722Z,10116.00
2019-03-27T09:21:10.713Z,9448.00
2019-03-27T09:22:10.704Z,19552.00
2019-03-27T09:23:10.697Z,18880.00
2019-03-27T09:24:10.678Z,9352.00
2019-03-27T09:25:10.672Z,6812.00
2019-03-27T09:26:10.679Z,6084.00
2019-03-27T09:27:10.648Z,5400.00
2019-03-27T09:28:10.645Z,7340.00
2019-03-27T09:29:10.623Z,8580.00
2019-03-27T09:30:10.613Z,4512.00
2019-03-27T09:31:10.616Z,4148.00
2019-03-27T09:32:10.605Z,5180.00
2019-03-27T09:33:10.640Z,3680.00
2019-03-27T09:34:10.570Z,4016.00
2019-03-27T09:35:10.563Z,4428.00
2019-03-27T09:36:10.704Z,3288.00
2019-03-27T09:37:10.537Z,3064.00
2019-03-27T09:38:10.541Z,2960.00
2019-03-27T09:39:10.519Z,2588.00
2019-03-27T09:40:10.509Z,2424.00
2019-03-27T09:41:10.496Z,2364.00
2019-03-27T09:42:10.485Z,2300.00
2019-03-27T09:43:10.485Z,2508.00
2019-03-27T09:44:10.463Z,2944.00
2019-03-27T09:45:10.453Z,2788.00
2019-03-27T09:46:10.443Z,2636.00
2019-03-27T09:47:10.430Z,2696.00
2019-03-27T09:48:10.431Z,2564.00
2019-03-27T09:49:10.410Z,2348.00
2019-03-27T09:50:10.401Z,1988.00
2019-03-27T09:51:10.389Z,1860.00
2019-03-27T09:52:10.378Z,2008.00
2019-03-27T09:53:10.378Z,2040.00
2019-03-27T09:54:10.361Z,2000.00
2019-03-27T09:55:10.346Z,1824.00
2019-03-27T09:56:19.124Z,1928.00
2019-03-27T09:57:11.328Z,2356.00
2019-03-27T09:58:10.322Z,2404.00
2019-03-27T09:59:10.305Z,2320.00
2019-03-27T10:00:10.296Z,2256.00
2019-03-27T10:01:10.283Z,2460.00
2019-03-27T10:02:10.274Z,2488.00
2019-03-27T10:03:10.284Z,2612.00
2019-03-27T10:04:10.254Z,2072.00
2019-03-27T10:05:10.246Z,1740.00
2019-03-27T10:06:10.230Z,1708.00
2019-03-27T10:07:10.234Z,1836.00
2019-03-27T10:08:10.231Z,2068.00
2019-03-27T10:09:10.196Z,2316.00
2019-03-27T10:10:10.191Z,2364.00
2019-03-27T10:11:10.178Z,2320.00
2019-03-27T10:12:10.166Z,2340.00
2019-03-27T10:13:10.164Z,2624.00
2019-03-27T10:14:10.148Z,3552.00
2019-03-27T10:15:10.132Z,3472.00
2019-03-27T10:16:10.122Z,3700.00
2019-03-27T10:17:10.113Z,4004.00
2019-03-27T10:18:10.110Z,3536.00
2019-03-27T10:19:10.092Z,5824.00
2019-03-27T10:20:13.387Z,4444.00
2019-03-27T10:21:10.070Z,3148.00
2019-03-27T10:22:10.060Z,2844.00
2019-03-27T10:23:10.070Z,2672.00
2019-03-27T10:24:10.041Z,2648.00
2019-03-27T10:25:10.107Z,2636.00
2019-03-27T10:26:10.016Z,2996.00
2019-03-27T10:27:10.006Z,3056.00
2019-03-27T10:28:10.006Z,2624.00
2019-03-27T10:29:09.984Z,2376.00
2019-03-27T10:30:09.976Z,2424.00
2019-03-27T10:31:09.987Z,2724.00
2019-03-27T10:32:09.952Z,2704.00
2019-03-27T10:33:09.949Z,2812.00
2019-03-27T10:34:09.930Z,2844.00
2019-03-27T10:35:09.920Z,2828.00
2019-03-27T10:36:09.908Z,3108.00
2019-03-27T10:37:09.901Z,3116.00
2019-03-27T10:38:09.897Z,3000.00
2019-03-27T10:39:09.877Z,2996.00
2019-03-27T10:40:09.864Z,3120.00
2019-03-27T10:41:09.854Z,3140.00
2019-03-27T10:42:09.846Z,3008.00
2019-03-27T10:43:09.853Z,3084.00
2019-03-27T10:44:09.824Z,2980.00
2019-03-27T10:45:09.810Z,2928.00
2019-03-27T10:46:09.800Z,2708.00
2019-03-27T10:47:09.789Z,2380.00
2019-03-27T10:48:09.795Z,2416.00
2019-03-27T10:49:09.769Z,3956.00
2019-03-27T10:50:17.424Z,3436.00
2019-03-27T10:51:10.745Z,3836.00
2019-03-27T10:52:09.737Z,3940.00
2019-03-27T10:53:09.748Z,3408.00
2019-03-27T10:54:09.714Z,2788.00
2019-03-27T10:55:09.709Z,2712.00
2019-03-27T10:56:09.691Z,3140.00
2019-03-27T10:57:09.681Z,2992.00
2019-03-27T10:58:09.673Z,2956.00
2019-03-27T10:59:09.677Z,3124.00
2019-03-27T11:00:09.655Z,3256.00
2019-03-27T11:01:09.650Z,3296.00
2019-03-27T11:02:09.629Z,3108.00
2019-03-27T11:03:09.621Z,2808.00
2019-03-27T11:04:09.621Z,2868.00
2019-03-27T11:05:09.611Z,2592.00
2019-03-27T11:06:09.591Z,2640.00
2019-03-27T11:07:09.579Z,2292.00
2019-03-27T11:08:11.377Z,2016.00
2019-03-27T11:09:09.583Z,1872.00
2019-03-27T11:10:09.549Z,1856.00
2019-03-27T11:11:09.539Z,1776.00
2019-03-27T11:12:09.522Z,1772.00
2019-03-27T11:13:09.513Z,1952.00
2019-03-27T11:14:09.512Z,2016.00
2019-03-27T11:15:09.496Z,2100.00
2019-03-27T11:16:09.497Z,1972.00
2019-03-27T11:17:09.472Z,2088.00
2019-03-27T11:18:09.460Z,2400.00
2019-03-27T11:19:09.460Z,2568.00
2019-03-27T11:20:09.439Z,2796.00
2019-03-27T11:21:09.428Z,3620.00
2019-03-27T11:22:09.418Z,3564.00
2019-03-27T11:23:09.409Z,2736.00
2019-03-27T11:24:09.405Z,2284.00
2019-03-27T11:25:09.384Z,2376.00
2019-03-27T11:26:09.379Z,2600.00
2019-03-27T11:27:09.363Z,3060.00
2019-03-27T11:28:09.367Z,3444.00
2019-03-27T11:29:09.513Z,4000.00
2019-03-27T11:30:09.332Z,4224.00
2019-03-27T11:31:09.324Z,4828.00
2019-03-27T11:32:09.321Z,11092.00
2019-03-27T11:33:09.366Z,7236.00
2019-03-27T11:34:09.291Z,5160.00
2019-03-27T11:35:09.294Z,3984.00
2019-03-27T11:36:09.271Z,3668.00
2019-03-27T11:37:09.260Z,3416.00
2019-03-27T11:38:09.245Z,3120.00
2019-03-27T11:39:09.235Z,2824.00
2019-03-27T11:40:09.248Z,2564.00
2019-03-27T11:41:12.138Z,2304.00
2019-03-27T11:42:09.205Z,2208.00
2019-03-27T11:43:09.212Z,2120.00
2019-03-27T11:44:12.501Z,1880.00
2019-03-27T11:45:09.180Z,1916.00
2019-03-27T11:46:09.168Z,1972.00
2019-03-27T11:47:09.156Z,2024.00
2019-03-27T11:48:09.142Z,2328.00
2019-03-27T11:49:09.129Z,4184.00
2019-03-27T11:50:09.139Z,5148.00
2019-03-27T11:51:09.107Z,5716.00
2019-03-27T11:52:09.097Z,10044.00
2019-03-27T11:53:09.086Z,7076.00
2019-03-27T11:54:09.077Z,7248.00
2019-03-27T11:55:09.076Z,6128.00
2019-03-27T11:56:09.056Z,5648.00
2019-03-27T11:57:09.045Z,5984.00
2019-03-27T11:58:09.033Z,5956.00
2019-03-27T11:59:09.018Z,6296.00
2019-03-27T12:00:09.017Z,3960.00
2019-03-27T12:01:08.996Z,3232.00
2019-03-27T12:02:08.990Z,3220.00
2019-03-27T12:03:08.978Z,2976.00
2019-03-27T12:04:08.965Z,3228.00
2019-03-27T12:05:08.963Z,3452.00
2019-03-27T12:06:08.941Z,3848.00
2019-03-27T12:07:08.931Z,4420.00
2019-03-27T12:08:08.921Z,3904.00
2019-03-27T12:09:08.915Z,3208.00
2019-03-27T12:10:08.912Z,3920.00
2019-03-27T12:11:08.887Z,3660.00
2019-03-27T12:12:08.901Z,3396.00
2019-03-27T12:13:08.871Z,2836.00
2019-03-27T12:14:12.080Z,3004.00
2019-03-27T12:15:08.864Z,3088.00
2019-03-27T12:16:08.840Z,2996.00
2019-03-27T12:17:08.821Z,2984.00
2019-03-27T12:18:08.811Z,3044.00
2019-03-27T12:19:08.805Z,2744.00
2019-03-27T12:20:08.804Z,2464.00
2019-03-27T12:21:08.775Z,2424.00
2019-03-27T12:22:08.765Z,2540.00
2019-03-27T12:23:08.758Z,2696.00
2019-03-27T12:24:08.746Z,3188.00
2019-03-27T12:25:08.745Z,3352.00
2019-03-27T12:26:08.722Z,3252.00
2019-03-27T12:27:08.717Z,2740.00
2019-03-27T12:28:08.769Z,2596.00
2019-03-27T12:29:08.695Z,2320.00
2019-03-27T12:30:08.694Z,2020.00
2019-03-27T12:31:08.725Z,1804.00
2019-03-27T12:32:08.660Z,1672.00
2019-03-27T12:33:08.652Z,1772.00
2019-03-27T12:34:08.645Z,1984.00
2019-03-27T12:35:08.636Z,2024.00